Caspian Mariner — 9HRH6 — position and weather

sailwx.info

Track history (hours):
 
Tides and Currents Weather Stations Pressure Air Temp Water Temp Dewpoint Dewpoint Depression Visibility Wind Speed Wind Dir Waves Ship Positions

Caspian Mariner

Last reported at 2018-Apr-23 23:12 UTC. Time now 2018-Apr-24 05:08 UTC.
Position N 45°05' E 030°40'.

Length 129 m; draft 5 m.

Type: Tanker. MMSI: 248801000.

Date/timePositionNaut miles runAvg speedWind from/ knotsBaromVisibWave heightAir tempDewpointWater temp
2018-Apr-23 23:12N 45°05' E 030°40'2 9.5
2018-Apr-23 23:00N 45°03' E 030°39'5 9.4
2018-Apr-23 22:30N 44°59' E 030°37'5 9.5
2018-Apr-23 22:00N 44°54' E 030°36'5 9.3
2018-Apr-23 21:30N 44°50' E 030°34'5 8.9
2018-Apr-23 20:54N 44°45' E 030°32'4 8.5
2018-Apr-23 20:28N 44°41' E 030°30'4 8.2
2018-Apr-23 19:58N 44°37' E 030°29'35 9.1
2018-Apr-23 16:11N 44°04' E 030°15'4 9.1
2018-Apr-23 15:45N 44°00' E 030°14'2 9.0
2018-Apr-23 15:30N 43°58' E 030°13'4 9.0
2018-Apr-23 15:00N 43°54' E 030°11'4 9.0
2018-Apr-23 14:30N 43°49' E 030°10'5 9.0
2018-Apr-23 14:00N 43°45' E 030°08'5 9.1
2018-Apr-23 13:30N 43°40' E 030°07'5 9.3
2018-Apr-23 13:00N 43°36' E 030°05'5 9.1
2018-Apr-23 12:30N 43°32' E 030°04'5 9.1
2018-Apr-23 12:00N 43°27' E 030°02'5 9.2
2018-Apr-23 11:30N 43°23' E 030°00'4 9.0
2018-Apr-23 11:00N 43°19' E 029°58'21 8.7
2018-Apr-23 08:37N 42°59' E 029°50'1 8.7
2018-Apr-23 08:30N 42°58' E 029°49'4 8.7
2018-Apr-23 08:01N 42°54' E 029°48'4 8.9
2018-Apr-23 07:30N 42°49' E 029°46'4 9.0
2018-Apr-23 07:00N 42°45' E 029°45'  
Track history (hours):
 
Tides and Currents Weather Stations Pressure Air Temp Water Temp Dewpoint Dewpoint Depression Visibility Wind Speed Wind Dir Waves Ship Positions

Caspian Mariner

Last reported at 2018-Apr-23 23:12 UTC. Time now 2018-Apr-24 05:08 UTC.
Position N 45°05' E 030°40'.

Length 129 m; draft 5 m.

Type: Tanker. MMSI: 248801000.

Date/timePositionNaut miles runAvg speedWind from/ knotsBaromVisibWave heightAir tempDewpointWater temp
2018-Apr-23 23:12N 45°05' E 030°40'2 9.5
2018-Apr-23 23:00N 45°03' E 030°39'5 9.4
2018-Apr-23 22:30N 44°59' E 030°37'5 9.5
2018-Apr-23 22:00N 44°54' E 030°36'5 9.3
2018-Apr-23 21:30N 44°50' E 030°34'5 8.9
2018-Apr-23 20:54N 44°45' E 030°32'4 8.5
2018-Apr-23 20:28N 44°41' E 030°30'4 8.2
2018-Apr-23 19:58N 44°37' E 030°29'35 9.1
2018-Apr-23 16:11N 44°04' E 030°15'4 9.1
2018-Apr-23 15:45N 44°00' E 030°14'2 9.0
2018-Apr-23 15:30N 43°58' E 030°13'4 9.0
2018-Apr-23 15:00N 43°54' E 030°11'4 9.0
2018-Apr-23 14:30N 43°49' E 030°10'5 9.0
2018-Apr-23 14:00N 43°45' E 030°08'5 9.1
2018-Apr-23 13:30N 43°40' E 030°07'5 9.3
2018-Apr-23 13:00N 43°36' E 030°05'5 9.1
2018-Apr-23 12:30N 43°32' E 030°04'5 9.1
2018-Apr-23 12:00N 43°27' E 030°02'5 9.2
2018-Apr-23 11:30N 43°23' E 030°00'4 9.0
2018-Apr-23 11:00N 43°19' E 029°58'21 8.7
2018-Apr-23 08:37N 42°59' E 029°50'1 8.7
2018-Apr-23 08:30N 42°58' E 029°49'4 8.7
2018-Apr-23 08:01N 42°54' E 029°48'4 8.9
2018-Apr-23 07:30N 42°49' E 029°46'4 9.0
2018-Apr-23 07:00N 42°45' E 029°45'  

Dump ship's entire track history